createdAt,value
2018-07-17T00:01:11.170Z,100692.13
2018-07-17T00:03:40.646Z,100695.90
2018-07-17T00:06:10.290Z,100694.77
2018-07-17T00:08:39.065Z,100699.64
2018-07-17T00:11:07.877Z,100703.69
2018-07-17T00:13:37.422Z,100697.94
2018-07-17T00:16:06.672Z,100698.45
2018-07-17T00:18:36.353Z,100702.21
2018-07-17T00:21:06.078Z,100701.61
2018-07-17T00:23:35.228Z,100701.05
2018-07-17T00:26:04.882Z,100695.80
2018-07-17T00:28:34.067Z,100701.16
2018-07-17T00:31:03.627Z,100690.80
2018-07-17T00:33:32.474Z,100700.27
2018-07-17T00:36:01.323Z,100695.06
2018-07-17T00:38:30.796Z,100696.88
2018-07-17T00:40:59.544Z,100689.45
2018-07-17T00:43:28.290Z,100685.38
2018-07-17T00:45:57.990Z,100686.95
2018-07-17T00:48:26.739Z,100688.02
2018-07-17T00:50:55.534Z,100684.48
2018-07-17T00:53:24.333Z,100683.06
2018-07-17T00:55:54.053Z,100686.84
2018-07-17T00:58:22.763Z,100683.31
2018-07-17T01:00:50.575Z,100686.23
2018-07-17T01:03:26.022Z,100682.66
2018-07-17T01:06:00.209Z,100690.48
2018-07-17T01:08:34.954Z,100679.91
2018-07-17T01:11:08.923Z,100679.87
2018-07-17T01:13:59.848Z,100672.76
2018-07-17T01:16:28.664Z,100681.39
2018-07-17T01:18:58.433Z,100676.17
2018-07-17T01:21:27.210Z,100680.24
2018-07-17T01:23:55.988Z,100677.70
2018-07-17T01:26:25.332Z,100686.33
2018-07-17T01:28:54.094Z,100685.50
2018-07-17T01:31:23.353Z,100684.63
2018-07-17T01:33:52.682Z,100676.99
2018-07-17T01:36:21.418Z,100675.84
2018-07-17T01:38:50.258Z,100674.14
2018-07-17T01:41:19.026Z,100677.06
2018-07-17T01:43:48.338Z,100675.38
2018-07-17T01:46:17.206Z,100672.65
2018-07-17T01:48:46.024Z,100681.85
2018-07-17T01:51:14.808Z,100677.45
2018-07-17T01:53:43.615Z,100672.85
2018-07-17T01:56:13.152Z,100682.30
2018-07-17T01:58:41.929Z,100676.83
2018-07-17T02:01:10.646Z,100686.80
2018-07-17T02:03:40.194Z,100677.47
2018-07-17T02:06:09.727Z,100676.08
2018-07-17T02:08:38.486Z,100679.85
2018-07-17T02:11:07.289Z,100672.49
2018-07-17T02:13:37.318Z,100671.96
2018-07-17T02:16:06.430Z,100672.78
2018-07-17T02:18:36.557Z,100682.80
2018-07-17T02:21:05.695Z,100677.37
2018-07-17T02:23:35.865Z,100674.13
2018-07-17T02:26:05.479Z,100668.66
2018-07-17T02:28:34.726Z,100673.79
2018-07-17T02:31:03.738Z,100674.90
2018-07-17T02:33:32.563Z,100675.67
2018-07-17T02:36:01.355Z,100675.30
2018-07-17T02:38:30.246Z,100680.95
2018-07-17T02:40:59.326Z,100685.02
2018-07-17T02:43:28.278Z,100682.84
2018-07-17T02:45:57.700Z,100685.02
2018-07-17T02:48:26.465Z,100678.53
2018-07-17T02:50:55.218Z,100688.02
2018-07-17T02:53:24.079Z,100686.71
2018-07-17T02:55:53.770Z,100685.12
2018-07-17T02:58:22.547Z,100684.91
2018-07-17T03:00:51.314Z,100678.35
2018-07-17T03:03:21.012Z,100679.84
2018-07-17T03:05:49.771Z,100678.52
2018-07-17T03:08:18.925Z,100679.51
2018-07-17T03:10:47.666Z,100668.36
2018-07-17T03:13:16.465Z,100674.48
2018-07-17T03:15:45.306Z,100672.92
2018-07-17T03:18:14.643Z,100669.58
2018-07-17T03:20:43.372Z,100671.06
2018-07-17T03:23:13.622Z,100664.88
2018-07-17T03:25:43.035Z,100675.00
2018-07-17T03:28:11.771Z,100677.17
2018-07-17T03:30:40.554Z,100677.66
2018-07-17T03:33:09.311Z,100675.67
2018-07-17T03:35:38.214Z,100671.30
2018-07-17T03:38:07.407Z,100671.59
2018-07-17T03:40:36.396Z,100672.06
2018-07-17T03:43:05.490Z,100667.08
2018-07-17T03:45:34.771Z,100666.75
2018-07-17T03:48:03.853Z,100663.57
2018-07-17T03:50:33.730Z,100673.74
2018-07-17T03:53:02.614Z,100668.06
2018-07-17T03:55:32.310Z,100677.16
2018-07-17T03:58:02.049Z,100668.39
2018-07-17T04:00:30.799Z,100668.09
2018-07-17T04:03:00.322Z,100661.64
2018-07-17T04:05:29.928Z,100657.16
2018-07-17T04:07:59.507Z,100651.77
2018-07-17T04:10:28.333Z,100647.44
2018-07-17T04:12:57.134Z,100646.37
2018-07-17T04:15:25.963Z,100647.54
2018-07-17T04:17:55.855Z,100643.06
2018-07-17T04:20:24.615Z,100642.49
2018-07-17T04:22:54.401Z,100635.65
2018-07-17T04:25:23.896Z,100644.64
2018-07-17T04:27:52.656Z,100638.61
2018-07-17T04:30:21.398Z,100641.47
2018-07-17T04:32:50.207Z,100639.61
2018-07-17T04:35:18.943Z,100647.75
2018-07-17T04:37:47.858Z,100646.55
2018-07-17T04:40:16.822Z,100643.66
2018-07-17T04:42:45.623Z,100640.47
2018-07-17T04:45:14.388Z,100638.30
2018-07-17T04:47:43.219Z,100637.02
2018-07-17T04:50:12.253Z,100641.16
2018-07-17T04:52:41.047Z,100642.48
2018-07-17T04:55:10.855Z,100645.20
2018-07-17T04:57:40.215Z,100649.55
2018-07-17T05:00:09.087Z,100652.28
2018-07-17T05:02:38.713Z,100650.36
2018-07-17T05:05:08.776Z,100647.31
2018-07-17T05:07:38.362Z,100646.19
2018-07-17T05:10:07.162Z,100643.66
2018-07-17T05:12:36.854Z,100636.77
2018-07-17T05:15:06.006Z,100636.17
2018-07-17T05:17:34.962Z,100635.30
2018-07-17T05:20:04.891Z,100637.75
2018-07-17T05:22:34.954Z,100636.37
2018-07-17T05:25:04.919Z,100640.70
2018-07-17T05:27:33.819Z,100638.42
2018-07-17T05:30:02.653Z,100639.75
2018-07-17T05:32:31.502Z,100637.16
2018-07-17T05:35:00.347Z,100633.44
2018-07-17T05:37:29.246Z,100633.11
2018-07-17T05:39:58.063Z,100627.01
2018-07-17T05:42:26.903Z,100638.44
2018-07-17T05:44:55.641Z,100641.71
2018-07-17T05:47:24.426Z,100635.00
2018-07-17T05:49:53.461Z,100640.41
2018-07-17T05:52:22.226Z,100642.51
2018-07-17T05:54:51.611Z,100640.53
2018-07-17T05:57:21.098Z,100639.58
2018-07-17T05:59:49.908Z,100641.03
2018-07-17T06:02:19.093Z,100627.53
2018-07-17T06:04:48.426Z,100635.38
2018-07-17T06:07:17.955Z,100627.28
2018-07-17T06:09:46.695Z,100627.02
2018-07-17T06:12:15.446Z,100627.73
2018-07-17T06:14:44.254Z,100629.77
2018-07-17T06:17:12.998Z,100633.12
2018-07-17T06:19:42.330Z,100626.86
2018-07-17T06:22:11.681Z,100628.61
2018-07-17T06:24:41.005Z,100628.83
2018-07-17T06:27:10.423Z,100632.94
2018-07-17T06:29:39.203Z,100629.53
2018-07-17T06:32:08.022Z,100634.86
2018-07-17T06:34:36.839Z,100627.44
2018-07-17T06:37:06.011Z,100624.47
2018-07-17T06:39:35.154Z,100619.13
2018-07-17T06:42:04.968Z,100620.83
2018-07-17T06:44:34.100Z,100612.12
2018-07-17T06:47:03.054Z,100615.53
2018-07-17T06:49:31.861Z,100614.12
2018-07-17T06:52:00.728Z,100612.74
2018-07-17T06:54:29.503Z,100609.00
2018-07-17T06:56:58.834Z,100603.73
2018-07-17T06:59:27.654Z,100605.57
2018-07-17T07:01:57.510Z,100608.39
2018-07-17T07:04:26.959Z,100603.80
2018-07-17T07:06:56.655Z,100596.37
2018-07-17T07:09:25.403Z,100598.70
2018-07-17T07:11:54.152Z,100595.39
2018-07-17T07:14:22.914Z,100592.53
2018-07-17T07:16:51.854Z,100592.89
2018-07-17T07:19:21.566Z,100587.13
2018-07-17T07:21:50.329Z,100591.02
2018-07-17T07:24:19.855Z,100590.21
2018-07-17T07:26:49.573Z,100589.35
2018-07-17T07:29:18.352Z,100585.95
2018-07-17T07:31:47.099Z,100592.98
2018-07-17T07:34:15.923Z,100593.70
2018-07-17T07:36:44.672Z,100584.00
2018-07-17T07:39:13.666Z,100581.73
2018-07-17T07:41:42.424Z,100581.09
2018-07-17T07:44:11.164Z,100574.61
2018-07-17T07:46:40.233Z,100577.23
2018-07-17T07:49:09.075Z,100576.02
2018-07-17T07:51:38.016Z,100573.31
2018-07-17T07:54:06.915Z,100566.53
2018-07-17T07:56:36.807Z,100562.41
2018-07-17T07:59:05.868Z,100569.23
2018-07-17T08:01:36.241Z,100565.84
2018-07-17T08:04:06.146Z,100561.16
2018-07-17T08:06:37.689Z,100556.39
2018-07-17T08:09:08.019Z,100561.76
2018-07-17T08:11:36.913Z,100553.48
2018-07-17T08:14:06.103Z,100566.70
2018-07-17T08:16:37.105Z,100554.65
2018-07-17T08:19:06.516Z,100547.14
2018-07-17T08:21:36.402Z,100543.14
2018-07-17T08:24:06.422Z,100552.81
2018-07-17T08:26:36.577Z,100550.13
2018-07-17T08:29:05.705Z,100559.75
2018-07-17T08:31:34.678Z,100555.86
2018-07-17T08:34:03.761Z,100559.35
2018-07-17T08:36:32.581Z,100574.20
2018-07-17T08:39:01.542Z,100561.10
2018-07-17T08:41:30.404Z,100564.52
2018-07-17T08:43:59.166Z,100562.91
2018-07-17T08:46:27.971Z,100564.98
2018-07-17T08:48:56.986Z,100561.08
2018-07-17T08:51:26.217Z,100549.95
2018-07-17T08:53:55.022Z,100558.73
2018-07-17T08:56:24.516Z,100559.55
2018-07-17T08:58:53.331Z,100552.72
2018-07-17T09:01:22.169Z,100560.39
2018-07-17T09:03:52.212Z,100550.20
2018-07-17T09:06:21.915Z,100554.68
2018-07-17T09:08:50.727Z,100546.00
2018-07-17T09:11:19.619Z,100539.80
2018-07-17T09:13:48.441Z,100555.33
2018-07-17T09:16:17.236Z,100548.59
2018-07-17T09:18:46.683Z,100548.52
2018-07-17T09:21:15.446Z,100545.30
2018-07-17T09:23:44.874Z,100548.08
2018-07-17T09:26:15.611Z,100550.26
2018-07-17T09:28:44.994Z,100548.33
2018-07-17T09:31:13.763Z,100547.14
2018-07-17T09:33:42.615Z,100554.03
2018-07-17T09:36:11.446Z,100549.48
2018-07-17T09:38:40.334Z,100544.77
2018-07-17T09:41:09.168Z,100542.78
2018-07-17T09:43:37.964Z,100546.48
2018-07-17T09:46:06.865Z,100546.42
2018-07-17T09:48:36.083Z,100542.61
2018-07-17T09:51:06.356Z,100552.58
2018-07-17T09:53:36.199Z,100548.02
2018-07-17T09:56:05.945Z,100538.83
2018-07-17T09:58:35.076Z,100540.46
2018-07-17T10:01:09.144Z,100541.73
2018-07-17T10:03:38.626Z,100544.30
2018-07-17T10:06:07.511Z,100541.50
2018-07-17T10:08:37.169Z,100531.70
2018-07-17T10:11:06.640Z,100540.25
2018-07-17T10:13:35.944Z,100534.81
2018-07-17T10:16:05.164Z,100533.86
2018-07-17T10:18:35.054Z,100529.25
2018-07-17T10:21:04.219Z,100532.03
2018-07-17T10:23:34.800Z,100523.62
2018-07-17T10:26:06.055Z,100536.41
2018-07-17T10:28:35.053Z,100531.59
2018-07-17T10:31:04.184Z,100534.11
2018-07-17T10:33:33.066Z,100534.37
2018-07-17T10:36:01.855Z,100523.95
2018-07-17T10:38:30.744Z,100519.91
2018-07-17T10:40:59.591Z,100518.19
2018-07-17T10:43:28.426Z,100518.75
2018-07-17T10:45:57.260Z,100514.87
2018-07-17T10:48:26.156Z,100513.47
2018-07-17T10:50:55.128Z,100514.81
2018-07-17T10:53:24.148Z,100512.04
2018-07-17T10:55:53.956Z,100513.47
2018-07-17T10:58:22.766Z,100511.63
2018-07-17T11:00:51.531Z,100510.63
2018-07-17T11:03:20.960Z,100516.75
2018-07-17T11:05:49.754Z,100514.40
2018-07-17T11:08:19.129Z,100508.77
2018-07-17T11:10:47.935Z,100501.02
2018-07-17T11:13:16.776Z,100505.63
2018-07-17T11:15:45.606Z,100504.15
2018-07-17T11:18:15.251Z,100497.93
2018-07-17T11:20:44.010Z,100506.47
2018-07-17T11:23:13.472Z,100494.67
2018-07-17T11:25:43.306Z,100493.34
2018-07-17T11:28:12.134Z,100498.68
2018-07-17T11:30:40.911Z,100497.47
2018-07-17T11:33:09.828Z,100489.20
2018-07-17T11:35:38.635Z,100497.93
2018-07-17T11:38:08.789Z,100494.67
2018-07-17T11:40:38.271Z,100502.36
2018-07-17T11:43:07.542Z,100503.08
2018-07-17T11:45:36.723Z,100492.40
2018-07-17T11:48:05.940Z,100498.08
2018-07-17T11:50:34.948Z,100495.55
2018-07-17T11:53:03.823Z,100494.27
2018-07-17T11:55:33.655Z,100510.42
2018-07-17T11:58:03.313Z,100502.97
2018-07-17T12:00:32.157Z,100498.95
2018-07-17T12:03:01.535Z,100497.30
2018-07-17T12:05:31.276Z,100502.80
2018-07-17T12:08:00.712Z,100498.84
2018-07-17T12:10:29.495Z,100496.22
2018-07-17T12:12:58.331Z,100492.31
2018-07-17T12:15:27.120Z,100486.52
2018-07-17T12:17:56.873Z,100494.45
2018-07-17T12:20:25.852Z,100496.86
2018-07-17T12:22:55.294Z,100490.70
2018-07-17T12:25:24.533Z,100490.53
2018-07-17T12:27:53.322Z,100485.78
2018-07-17T12:30:22.106Z,100484.62
2018-07-17T12:32:51.151Z,100497.00
2018-07-17T12:35:19.925Z,100488.27
2018-07-17T12:37:48.841Z,100478.55
2018-07-17T12:40:17.817Z,100478.55
2018-07-17T12:42:47.059Z,100466.09
2018-07-17T12:45:15.862Z,100476.26
2018-07-17T12:47:44.731Z,100477.06
2018-07-17T12:50:13.828Z,100474.85
2018-07-17T12:52:42.615Z,100478.05
2018-07-17T12:55:12.531Z,100474.34
2018-07-17T12:57:42.150Z,100470.58
2018-07-17T13:00:10.925Z,100475.43
2018-07-17T13:02:40.383Z,100463.73
2018-07-17T13:05:09.702Z,100465.08
2018-07-17T13:07:39.310Z,100454.37
2018-07-17T13:10:08.519Z,100460.00
2018-07-17T13:12:37.771Z,100460.86
2018-07-17T13:15:07.226Z,100460.05
2018-07-17T13:17:36.783Z,100462.59
2018-07-17T13:20:07.056Z,100464.60
2018-07-17T13:22:39.428Z,100463.80
2018-07-17T13:25:09.183Z,100456.84
2018-07-17T13:27:38.272Z,100461.78
2018-07-17T13:30:08.748Z,100458.84
2018-07-17T13:32:37.986Z,100469.37
2018-07-17T13:35:07.633Z,100462.39
2018-07-17T13:37:36.754Z,100463.11
2018-07-17T13:40:06.348Z,100449.19
2018-07-17T13:42:35.250Z,100448.08
2018-07-17T13:45:04.146Z,100458.00
2018-07-17T13:47:32.968Z,100456.42
2018-07-17T13:50:02.005Z,100467.74
2018-07-17T13:52:30.830Z,100461.05
2018-07-17T13:55:01.001Z,100459.09
2018-07-17T13:57:30.767Z,100449.69
2018-07-17T13:59:59.610Z,100437.67
2018-07-17T14:02:29.033Z,100451.41
2018-07-17T14:04:58.423Z,100447.95
2018-07-17T14:07:27.876Z,100448.27
2018-07-17T14:09:56.673Z,100450.22
2018-07-17T14:12:25.607Z,100455.42
2018-07-17T14:14:54.362Z,100455.61
2018-07-17T14:17:23.179Z,100455.27
2018-07-17T14:19:53.046Z,100461.44
2018-07-17T14:22:22.816Z,100462.94
2018-07-17T14:24:52.121Z,100461.28
2018-07-17T14:27:20.911Z,100462.55
2018-07-17T14:29:50.037Z,100452.38
2018-07-17T14:32:18.900Z,100461.63
2018-07-17T14:34:47.706Z,100461.05
2018-07-17T14:37:16.601Z,100460.13
2018-07-17T14:39:46.506Z,100465.91
2018-07-17T14:42:15.375Z,100464.28
2018-07-17T14:44:44.170Z,100466.78
2018-07-17T14:47:13.018Z,100455.61
2018-07-17T14:49:44.092Z,100459.31
2018-07-17T14:52:12.942Z,100457.75
2018-07-17T14:54:42.492Z,100461.02
2018-07-17T14:57:12.227Z,100457.16
2018-07-17T14:59:41.068Z,100450.12
2018-07-17T15:02:10.654Z,100459.61
2018-07-17T15:04:40.608Z,100451.23
2018-07-17T15:07:10.018Z,100452.42
2018-07-17T15:09:39.243Z,100452.02
2018-07-17T15:12:08.194Z,100446.56
2018-07-17T15:14:37.237Z,100468.05
2018-07-17T15:17:06.840Z,100464.34
2018-07-17T15:19:36.452Z,100467.35
2018-07-17T15:22:05.632Z,100463.19
2018-07-17T15:24:35.898Z,100460.53
2018-07-17T15:27:05.967Z,100455.69
2018-07-17T15:29:35.122Z,100453.98
2018-07-17T15:32:03.956Z,100456.73
2018-07-17T15:34:32.710Z,100460.08
2018-07-17T15:37:01.454Z,100453.92
2018-07-17T15:39:30.314Z,100459.42
2018-07-17T15:41:59.130Z,100445.24
2018-07-17T15:44:27.931Z,100451.09
2018-07-17T15:46:56.701Z,100451.27
2018-07-17T15:49:25.500Z,100447.69
2018-07-17T15:51:54.467Z,100453.23
2018-07-17T15:54:23.233Z,100450.66
2018-07-17T15:56:52.781Z,100450.45
2018-07-17T15:59:21.601Z,100441.68
2018-07-17T16:01:51.010Z,100451.34
2018-07-17T16:04:20.390Z,100459.59
2018-07-17T16:06:51.138Z,100459.91
2018-07-17T16:09:19.923Z,100449.52
2018-07-17T16:11:48.701Z,100455.45
2018-07-17T16:14:17.866Z,100450.58
2018-07-17T16:16:46.339Z,100462.94
2018-07-17T16:19:15.744Z,100458.38
2018-07-17T16:21:45.009Z,100461.81
2018-07-17T16:24:14.762Z,100463.27
2018-07-17T16:26:44.339Z,100460.46
2018-07-17T16:29:13.099Z,100461.73
2018-07-17T16:31:41.883Z,100457.13
2018-07-17T16:34:10.662Z,100458.09
2018-07-17T16:36:39.942Z,100468.72
2018-07-17T16:39:08.892Z,100462.62
2018-07-17T16:41:38.882Z,100466.41
2018-07-17T16:45:10.627Z,100471.20
2018-07-17T16:47:39.631Z,100465.04
2018-07-17T16:50:08.656Z,100458.66
2018-07-17T16:52:39.402Z,100465.67
2018-07-17T16:55:08.989Z,100460.34
2018-07-17T16:57:38.631Z,100462.00
2018-07-17T17:00:07.842Z,100460.11
2018-07-17T17:02:37.315Z,100462.94
2018-07-17T17:05:07.022Z,100466.64
2018-07-17T17:07:37.478Z,100467.98
2018-07-17T17:10:07.484Z,100470.93
2018-07-17T17:12:36.629Z,100462.89
2018-07-17T17:15:06.442Z,100467.83
2018-07-17T17:17:35.776Z,100469.73
2018-07-17T17:20:06.304Z,100463.38
2018-07-17T17:22:36.127Z,100464.80
2018-07-17T17:25:07.014Z,100464.69
2018-07-17T17:27:36.770Z,100469.34
2018-07-17T17:30:05.815Z,100457.58
2018-07-17T17:32:34.694Z,100462.97
2018-07-17T17:35:03.502Z,100471.08
2018-07-17T17:37:32.578Z,100474.71
2018-07-17T17:40:01.351Z,100466.80
2018-07-17T17:42:30.119Z,100472.59
2018-07-17T17:44:58.862Z,100471.09
2018-07-17T17:47:27.686Z,100480.05
2018-07-17T17:49:56.813Z,100480.63
2018-07-17T17:52:25.581Z,100479.33
2018-07-17T17:54:55.224Z,100485.30
2018-07-17T17:57:25.191Z,100490.48
2018-07-17T17:59:53.967Z,100493.31
2018-07-17T18:02:23.227Z,100495.55
2018-07-17T18:04:52.571Z,100492.99
2018-07-17T18:07:22.003Z,100490.26
2018-07-17T18:09:51.273Z,100497.61
2018-07-17T18:12:20.020Z,100490.23
2018-07-17T18:14:48.834Z,100497.02
2018-07-17T18:17:17.586Z,100490.90
2018-07-17T18:19:47.562Z,100500.03
2018-07-17T18:22:16.830Z,100509.98
2018-07-17T18:24:46.685Z,100511.37
2018-07-17T18:27:15.465Z,100511.48
2018-07-17T18:29:44.252Z,100502.19
2018-07-17T18:32:13.078Z,100509.73
2018-07-17T18:34:41.814Z,100505.43
2018-07-17T18:37:10.662Z,100514.59
2018-07-17T18:39:39.501Z,100510.88
2018-07-17T18:42:08.525Z,100515.91
2018-07-17T18:44:37.804Z,100515.30
2018-07-17T18:47:06.906Z,100519.73
2018-07-17T18:49:36.410Z,100526.19
2018-07-17T18:52:05.728Z,100527.02
2018-07-17T18:54:34.754Z,100529.06
2018-07-17T18:57:06.046Z,100528.50
2018-07-17T18:59:34.877Z,100530.22
2018-07-17T19:02:04.194Z,100541.56
2018-07-17T19:04:33.615Z,100538.98
2018-07-17T19:07:03.119Z,100542.15
2018-07-17T19:09:31.883Z,100544.86
2018-07-17T19:12:00.747Z,100542.00
2018-07-17T19:14:29.550Z,100538.50
2018-07-17T19:16:58.416Z,100544.52
2018-07-17T19:19:27.965Z,100541.78
2018-07-17T19:21:56.766Z,100539.03
2018-07-17T19:24:26.383Z,100537.31
2018-07-17T19:26:55.701Z,100535.11
2018-07-17T19:29:24.477Z,100545.42
2018-07-17T19:31:53.245Z,100543.94
2018-07-17T19:34:22.059Z,100541.33
2018-07-17T19:36:50.863Z,100538.72
2018-07-17T19:39:19.832Z,100541.36
2018-07-17T19:41:48.662Z,100541.27
2018-07-17T19:44:17.439Z,100539.73
2018-07-17T19:46:46.250Z,100544.77
2018-07-17T19:49:15.043Z,100548.44
2018-07-17T19:51:44.151Z,100542.23
2018-07-17T19:54:13.051Z,100545.65
2018-07-17T19:56:42.376Z,100550.11
2018-07-17T19:59:11.489Z,100551.02
2018-07-17T20:01:40.307Z,100550.61
2018-07-17T20:04:09.846Z,100551.52
2018-07-17T20:06:39.149Z,100546.44
2018-07-17T20:49:20.388Z,100525.95
2018-07-17T20:51:49.152Z,100519.77
2018-07-17T20:54:17.930Z,100519.28
2018-07-17T20:56:47.840Z,100519.94
2018-07-17T20:59:16.612Z,100523.27
2018-07-17T21:01:46.342Z,100529.39
2018-07-17T21:04:16.278Z,100520.98
2018-07-17T21:06:45.068Z,100517.75
2018-07-17T21:09:13.842Z,100518.66
2018-07-17T21:11:42.656Z,100517.06
2018-07-17T21:14:11.432Z,100521.25
2018-07-17T21:16:41.359Z,100523.47
2018-07-17T21:19:10.976Z,100521.03
2018-07-17T21:21:40.413Z,100509.90
2018-07-17T21:24:09.183Z,100511.84
2018-07-17T21:26:38.551Z,100511.36
2018-07-17T21:29:07.346Z,100515.48
2018-07-17T21:31:36.592Z,100510.59
2018-07-17T21:34:05.379Z,100510.66
2018-07-17T21:36:34.139Z,100515.57
2018-07-17T21:39:03.440Z,100515.36
2018-07-17T21:41:32.518Z,100510.48
2018-07-17T21:44:01.467Z,100509.99
2018-07-17T21:46:31.101Z,100510.58
2018-07-17T21:49:00.948Z,100512.75
2018-07-17T21:51:30.573Z,100517.17
2018-07-17T21:53:59.431Z,100516.09
2018-07-17T21:56:28.980Z,100515.30
2018-07-17T21:58:57.927Z,100516.17
2018-07-17T22:01:26.784Z,100521.64
2018-07-17T22:03:56.200Z,100515.95
2018-07-17T22:06:25.111Z,100512.97
2018-07-17T22:08:53.943Z,100513.25
2018-07-17T22:11:22.754Z,100515.99
2018-07-17T22:13:51.580Z,100520.36
2018-07-17T22:16:21.656Z,100521.50
2018-07-17T22:18:51.146Z,100520.95
2018-07-17T22:21:20.628Z,100524.23
2018-07-17T22:23:49.367Z,100523.45
2018-07-17T22:26:18.777Z,100530.27
2018-07-17T22:28:47.514Z,100530.55
2018-07-17T22:31:16.292Z,100536.55
2018-07-17T22:33:45.096Z,100531.64
2018-07-17T22:36:13.831Z,100536.00
2018-07-17T22:38:42.669Z,100533.85
2018-07-17T22:41:11.452Z,100537.67
2018-07-17T22:43:40.222Z,100537.67
2018-07-17T22:46:08.966Z,100535.24
2018-07-17T22:48:38.614Z,100539.60
2018-07-17T22:51:07.627Z,100537.69
2018-07-17T22:53:36.416Z,100533.91
2018-07-17T22:56:05.833Z,100542.89
2018-07-17T22:58:34.606Z,100545.30
2018-07-17T23:01:03.601Z,100537.16
2018-07-17T23:03:33.276Z,100536.33
2018-07-17T23:06:02.372Z,100537.98
2018-07-17T23:08:31.302Z,100532.80
2018-07-17T23:11:00.448Z,100533.60
2018-07-17T23:13:30.171Z,100529.78
2018-07-17T23:16:00.291Z,100524.91
2018-07-17T23:18:29.930Z,100524.63
2018-07-17T23:20:59.707Z,100525.97
2018-07-17T23:23:28.491Z,100525.69
2018-07-17T23:25:58.253Z,100522.99
2018-07-17T23:28:27.031Z,100523.53
2018-07-17T23:30:55.843Z,100523.25
2018-07-17T23:33:25.414Z,100531.95
2018-07-17T23:35:55.199Z,100531.95
2018-07-17T23:38:24.105Z,100529.79
2018-07-17T23:40:52.946Z,100529.50
2018-07-17T23:43:21.840Z,100530.30
2018-07-17T23:45:50.610Z,100532.73
2018-07-17T23:48:19.359Z,100530.03
2018-07-17T23:50:49.019Z,100533.83
2018-07-17T23:53:17.780Z,100525.92
2018-07-17T23:55:47.157Z,100527.78
2018-07-17T23:58:16.003Z,100528.05
